createdAt,value
2017-09-08T00:00:02.603Z,13.29
2017-09-08T00:05:02.601Z,13.26
2017-09-08T00:10:02.813Z,13.22
2017-09-08T00:15:03.026Z,13.18
2017-09-08T00:20:03.013Z,13.15
2017-09-08T00:25:02.228Z,13.1
2017-09-08T00:30:02.439Z,13.07
2017-09-08T00:35:02.989Z,13.06
2017-09-08T00:40:02.219Z,13.08
2017-09-08T00:45:02.468Z,13.08
2017-09-08T00:50:02.631Z,13.09
2017-09-08T00:55:02.858Z,13.11
2017-09-08T01:00:03.086Z,13.14
2017-09-08T01:05:02.946Z,13.16
2017-09-08T01:10:02.178Z,13.16
2017-09-08T01:15:02.421Z,13.16
2017-09-08T01:20:02.551Z,13.15
2017-09-08T01:25:02.753Z,13.15
2017-09-08T01:30:02.958Z,13.17
2017-09-08T01:35:02.792Z,13.17
2017-09-08T01:40:02.968Z,13.17
2017-09-08T01:45:02.208Z,13.17
2017-09-08T01:50:02.394Z,13.18
2017-09-08T01:55:02.587Z,13.17
2017-09-08T02:00:02.818Z,13.18
2017-09-08T02:05:03.042Z,13.18
2017-09-08T02:10:02.263Z,13.17
2017-09-08T02:15:02.457Z,13.14
2017-09-08T02:20:02.169Z,13.16
2017-09-08T02:25:02.381Z,13.16
2017-09-08T02:30:02.579Z,13.16
2017-09-08T02:35:02.744Z,13.17
2017-09-08T02:40:02.993Z,13.18
2017-09-08T02:45:02.157Z,13.19
2017-09-08T02:50:03.130Z,13.18
2017-09-08T02:55:02.299Z,13.15
2017-09-08T03:00:02.543Z,13.11
2017-09-08T03:05:02.344Z,13.09
2017-09-08T03:10:02.574Z,13.05
2017-09-08T03:15:02.787Z,13.01
2017-09-08T03:20:02.287Z,12.97
2017-09-08T03:25:02.509Z,12.95
2017-09-08T03:30:02.699Z,12.93
2017-09-08T03:35:03.096Z,12.91
2017-09-08T03:40:02.283Z,12.9
2017-09-08T03:45:02.534Z,12.89
2017-09-08T03:50:02.517Z,12.86
2017-09-08T03:55:02.702Z,12.85
2017-09-08T04:00:02.921Z,12.82
2017-09-08T04:05:02.366Z,12.81
2017-09-08T04:10:02.546Z,12.79
2017-09-08T04:15:02.775Z,12.79
2017-09-08T04:20:02.312Z,12.8
2017-09-08T04:25:02.539Z,12.8
2017-09-08T04:30:02.721Z,12.8
2017-09-08T04:35:02.554Z,12.79
2017-09-08T04:40:02.755Z,12.78
2017-09-08T04:45:02.958Z,12.77
2017-09-08T04:50:02.982Z,12.76
2017-09-08T04:55:02.295Z,12.77
2017-09-08T05:00:02.502Z,12.75
2017-09-08T05:05:03.190Z,12.75
2017-09-08T05:10:02.399Z,12.76
2017-09-08T05:15:02.630Z,12.77
2017-09-08T05:20:02.688Z,12.77
2017-09-08T05:25:02.902Z,12.79
2017-09-08T05:30:03.112Z,12.79
2017-09-08T05:35:03.068Z,12.81
2017-09-08T05:40:02.268Z,12.86
2017-09-08T05:45:02.468Z,12.86
2017-09-08T05:50:02.100Z,12.87
2017-09-08T05:55:02.349Z,12.89
2017-09-08T06:00:02.517Z,12.91
2017-09-08T06:05:02.457Z,12.92
2017-09-08T06:10:02.692Z,12.93
2017-09-08T06:15:02.913Z,12.97
2017-09-08T06:20:02.731Z,13.02
2017-09-08T06:25:02.947Z,13.04
2017-09-08T06:30:02.128Z,13.04
2017-09-08T06:35:02.471Z,13.06
2017-09-08T06:40:02.685Z,13.1
2017-09-08T06:45:02.847Z,13.14
2017-09-08T06:50:02.540Z,13.17
2017-09-08T06:55:02.745Z,13.19
2017-09-08T07:00:02.928Z,13.22
2017-09-08T07:05:02.765Z,13.22
2017-09-08T07:10:02.983Z,13.22
2017-09-08T07:15:02.192Z,13.22
2017-09-08T07:20:02.709Z,13.25
2017-09-08T07:25:02.916Z,13.26
2017-09-08T07:30:02.143Z,13.27
2017-09-08T07:35:02.609Z,13.26
2017-09-08T07:40:02.803Z,13.27
2017-09-08T07:45:03.058Z,13.3
2017-09-08T07:50:03.105Z,13.34
2017-09-08T07:55:02.274Z,13.36
2017-09-08T08:00:02.432Z,13.37
2017-09-08T08:05:02.883Z,13.39
2017-09-08T08:10:03.071Z,13.45
2017-09-08T08:15:02.291Z,13.48
2017-09-08T08:20:02.841Z,13.51
2017-09-08T08:25:03.069Z,13.54
2017-09-08T08:30:02.232Z,13.55
2017-09-08T08:35:02.960Z,13.52
2017-09-08T08:40:02.167Z,13.52
2017-09-08T08:45:02.381Z,13.51
2017-09-08T08:50:02.728Z,13.53
2017-09-08T08:55:02.936Z,13.54
2017-09-08T09:00:02.170Z,13.62
2017-09-08T09:05:02.543Z,13.71
2017-09-08T09:10:02.777Z,13.8
2017-09-08T09:15:02.979Z,13.84
2017-09-08T09:20:02.774Z,13.89
2017-09-08T09:25:02.989Z,13.92
2017-09-08T09:30:02.177Z,13.95
2017-09-08T09:35:02.762Z,14.01
2017-09-08T09:40:02.941Z,14.11
2017-09-08T09:45:02.135Z,14.2
2017-09-08T09:50:02.437Z,14.25
2017-09-08T09:55:02.634Z,14.27
2017-09-08T10:00:02.833Z,14.29
2017-09-08T10:05:02.512Z,14.35
2017-09-08T10:10:02.706Z,14.39
2017-09-08T10:15:02.928Z,14.41
2017-09-08T10:20:02.720Z,14.43
2017-09-08T10:25:02.909Z,14.52
2017-09-08T10:30:03.056Z,14.57
2017-09-08T10:35:02.990Z,14.67
2017-09-08T10:40:02.234Z,14.8
2017-09-08T10:45:02.473Z,14.93
2017-09-08T10:50:03.114Z,15.06
2017-09-08T10:55:02.344Z,15.16
2017-09-08T11:00:02.509Z,15.17
2017-09-08T11:05:02.713Z,15.22
2017-09-08T11:10:02.933Z,15.28
2017-09-08T11:15:03.109Z,15.43
2017-09-08T11:20:02.330Z,15.52
2017-09-08T11:25:02.547Z,15.6
2017-09-08T11:30:02.784Z,15.72
2017-09-08T11:35:02.960Z,15.81
2017-09-08T11:40:02.179Z,15.8
2017-09-08T11:45:02.437Z,15.78
2017-09-08T11:50:02.620Z,15.76
2017-09-08T11:55:02.883Z,15.67
2017-09-08T12:00:03.194Z,15.59
2017-09-08T12:05:02.306Z,15.43
2017-09-08T12:10:02.525Z,15.27
2017-09-08T12:15:02.784Z,15.16
2017-09-08T12:20:03.103Z,15.03
2017-09-08T12:25:02.292Z,14.93
2017-09-08T12:30:02.513Z,14.83
2017-09-08T12:35:02.513Z,14.75
2017-09-08T12:40:02.666Z,14.69
2017-09-08T12:45:02.925Z,14.7
2017-09-08T12:50:02.341Z,14.74
2017-09-08T12:55:02.495Z,14.79
2017-09-08T13:00:02.727Z,14.74
2017-09-08T13:05:02.841Z,14.71
2017-09-08T13:10:03.058Z,14.7
2017-09-08T13:15:02.272Z,14.64
2017-09-08T13:20:03.125Z,14.58
2017-09-08T13:25:02.327Z,14.54
2017-09-08T13:30:02.537Z,14.51
2017-09-08T13:35:02.882Z,14.54
2017-09-08T13:40:03.098Z,14.57
2017-09-08T13:45:02.323Z,14.57
2017-09-08T13:50:02.820Z,14.56
2017-09-08T13:55:03.051Z,14.55
2017-09-08T14:00:02.240Z,14.51
2017-09-08T14:05:02.430Z,14.44
2017-09-08T14:10:02.630Z,14.36
2017-09-08T14:15:02.808Z,14.33
2017-09-08T14:20:02.691Z,14.32
2017-09-08T14:25:02.932Z,14.29
2017-09-08T14:30:03.129Z,14.27
2017-09-08T14:35:02.638Z,14.28
2017-09-08T14:40:02.843Z,14.28
2017-09-08T14:45:03.058Z,14.29
2017-09-08T14:50:02.693Z,14.36
2017-09-08T14:55:02.886Z,14.39
2017-09-08T15:00:03.054Z,14.41
2017-09-08T15:05:02.260Z,14.4
2017-09-08T15:10:02.492Z,14.38
2017-09-08T15:15:02.717Z,14.38
2017-09-08T15:20:02.910Z,14.38
2017-09-08T15:25:02.150Z,14.38
2017-09-08T15:30:02.375Z,14.36
2017-09-08T15:35:02.167Z,14.34
2017-09-08T15:40:02.382Z,14.33
2017-09-08T15:45:02.607Z,14.32
2017-09-08T15:50:03.113Z,14.29
2017-09-08T15:55:02.375Z,14.29
2017-09-08T16:00:02.535Z,14.27
2017-09-08T16:05:02.269Z,14.25
2017-09-08T16:10:02.483Z,14.23
2017-09-08T16:15:02.700Z,14.25
2017-09-08T16:20:02.439Z,14.24
2017-09-08T16:25:02.668Z,14.23
2017-09-08T16:30:03.282Z,14.21
2017-09-08T16:35:02.895Z,14.23
2017-09-08T16:40:02.195Z,14.24
2017-09-08T16:45:02.401Z,14.25
2017-09-08T16:50:02.600Z,14.23
2017-09-08T16:55:02.817Z,14.23
2017-09-08T17:00:03.059Z,14.24
2017-09-08T17:05:02.820Z,14.23
2017-09-08T17:10:03.033Z,14.21
2017-09-08T17:15:02.273Z,14.19
2017-09-08T17:20:02.592Z,14.17
2017-09-08T17:25:02.774Z,14.18
2017-09-08T17:30:02.999Z,14.14
2017-09-08T17:35:02.209Z,14.14
2017-09-08T17:40:02.449Z,14.11
2017-09-08T17:45:02.693Z,14.1
2017-09-08T17:50:02.683Z,14.1
2017-09-08T17:55:02.967Z,14.08
2017-09-08T18:00:02.171Z,14.06
2017-09-08T18:05:03.051Z,14.04
2017-09-08T18:10:02.239Z,14.04
2017-09-08T18:15:02.475Z,14.04
2017-09-08T18:20:02.799Z,14
2017-09-08T18:25:03.039Z,13.99
2017-09-08T18:30:02.241Z,13.99
2017-09-08T18:35:02.416Z,13.99
2017-09-08T18:40:02.635Z,13.97
2017-09-08T18:45:02.860Z,13.96
2017-09-08T18:50:02.307Z,13.96
2017-09-08T18:55:02.524Z,13.95
2017-09-08T19:00:02.746Z,13.93
2017-09-08T19:05:03.053Z,13.93
2017-09-08T19:10:02.274Z,13.93
2017-09-08T19:15:02.495Z,13.92
2017-09-08T19:20:02.249Z,13.92
2017-09-08T19:25:02.520Z,13.9
2017-09-08T19:30:02.801Z,13.89
2017-09-08T19:35:02.943Z,13.9
2017-09-08T19:40:02.162Z,13.9
2017-09-08T19:45:02.471Z,13.89
2017-09-08T19:50:02.316Z,13.89
2017-09-08T19:55:02.543Z,13.9
2017-09-08T20:00:02.780Z,13.89
2017-09-08T20:05:02.235Z,13.89
2017-09-08T20:10:02.440Z,13.88
2017-09-08T20:15:02.630Z,13.89
2017-09-08T20:20:03.118Z,13.88
2017-09-08T20:25:02.381Z,13.86
2017-09-08T20:30:02.611Z,13.83
2017-09-08T20:35:02.789Z,13.83
2017-09-08T20:40:03.021Z,13.82
2017-09-08T20:45:02.292Z,13.8
2017-09-08T20:50:02.807Z,13.78
2017-09-08T20:55:02.989Z,13.76
2017-09-08T21:00:02.213Z,13.74
2017-09-08T21:05:02.677Z,13.69
2017-09-08T21:10:02.892Z,13.65
2017-09-08T21:15:03.136Z,13.61
2017-09-08T21:20:03.097Z,13.61
2017-09-08T21:25:02.355Z,13.59
2017-09-08T21:30:02.549Z,13.59
2017-09-08T21:35:02.325Z,13.58
2017-09-08T21:40:02.520Z,13.58
2017-09-08T21:45:02.753Z,13.59
2017-09-08T21:50:02.969Z,13.61
2017-09-08T21:55:02.199Z,13.62
2017-09-08T22:00:02.701Z,13.65
2017-09-08T22:05:03.110Z,13.65
2017-09-08T22:10:02.491Z,13.64
2017-09-08T22:15:03.011Z,13.65
2017-09-08T22:20:03.043Z,13.67
2017-09-08T22:25:02.450Z,13.63
2017-09-08T22:30:02.848Z,13.63
2017-09-08T22:35:02.787Z,13.62
2017-09-08T22:40:02.173Z,13.62
2017-09-08T22:45:02.563Z,13.62
2017-09-08T22:50:02.432Z,13.62
2017-09-08T22:55:02.822Z,13.61
2017-09-08T23:00:02.328Z,13.64
2017-09-08T23:05:02.383Z,13.64
2017-09-08T23:10:02.572Z,13.66
2017-09-08T23:15:02.777Z,13.66
2017-09-08T23:20:02.184Z,13.68
2017-09-08T23:25:02.399Z,13.68
2017-09-08T23:30:02.561Z,13.69
2017-09-08T23:35:02.446Z,13.67
2017-09-08T23:40:02.643Z,13.67
2017-09-08T23:45:02.809Z,13.66
2017-09-08T23:50:02.434Z,13.66
2017-09-08T23:55:02.658Z,13.65
